createdAt,value
2023-03-21T00:01:54.097Z,7.82
2023-03-21T00:04:24.122Z,9.20
2023-03-21T00:06:51.767Z,10.73
2023-03-21T00:09:20.387Z,9.82
2023-03-21T00:11:48.470Z,10.13
2023-03-21T00:14:18.883Z,8.00
2023-03-21T00:16:53.035Z,10.40
2023-03-21T00:19:21.877Z,6.20
2023-03-21T00:22:06.560Z,5.72
2023-03-21T00:24:36.861Z,9.95
2023-03-21T00:27:44.851Z,11.30
2023-03-21T00:29:56.217Z,7.35
2023-03-21T00:32:24.048Z,9.18
2023-03-21T00:35:11.819Z,7.15
2023-03-21T00:37:40.168Z,6.68
2023-03-21T00:40:23.004Z,7.97
2023-03-21T00:42:53.082Z,7.78
2023-03-21T00:45:22.313Z,8.50
2023-03-21T00:47:55.951Z,5.55
2023-03-21T00:50:24.212Z,7.90
2023-03-21T00:52:51.927Z,4.47
2023-03-21T00:55:20.151Z,8.27
2023-03-21T00:57:56.122Z,11.82
2023-03-21T01:00:27.786Z,7.60
2023-03-21T01:03:08.499Z,8.48
2023-03-21T01:06:04.494Z,8.50
2023-03-21T01:08:44.922Z,6.28
2023-03-21T01:11:21.280Z,10.25
2023-03-21T01:13:54.927Z,9.18
2023-03-21T01:16:27.520Z,8.02
2023-03-21T01:18:56.128Z,7.25
2023-03-21T01:21:23.821Z,7.47
2023-03-21T01:23:52.084Z,8.38
2023-03-21T01:26:19.989Z,11.52
2023-03-21T01:28:47.410Z,5.60
2023-03-21T01:31:17.554Z,9.95
2023-03-21T01:33:45.605Z,9.40
2023-03-21T01:36:24.068Z,9.52
2023-03-21T01:38:54.945Z,9.02
2023-03-21T01:41:44.826Z,8.13
2023-03-21T01:44:28.921Z,5.03
2023-03-21T01:47:09.745Z,8.27
2023-03-21T01:49:46.398Z,6.57
2023-03-21T01:52:36.924Z,5.47
2023-03-21T01:55:13.620Z,7.15
2023-03-21T01:58:05.830Z,6.55
2023-03-21T02:01:04.855Z,5.13
2023-03-21T02:03:51.034Z,12.50
2023-03-21T02:06:47.048Z,5.70
2023-03-21T02:09:35.636Z,4.38
2023-03-21T02:12:05.299Z,4.55
2023-03-21T02:14:36.064Z,11.05
2023-03-21T02:17:34.671Z,8.27
2023-03-21T02:20:25.400Z,10.63
2023-03-21T02:23:12.580Z,6.13
2023-03-21T02:25:39.998Z,8.10
2023-03-21T02:31:03.029Z,8.63
2023-03-21T02:33:50.810Z,5.03
2023-03-21T02:36:49.422Z,11.55
2023-03-21T02:39:36.316Z,7.07
2023-03-21T02:42:18.780Z,7.47
2023-03-21T02:44:56.726Z,6.82
2023-03-21T02:47:43.859Z,6.15
2023-03-21T02:50:14.794Z,11.43
2023-03-21T02:52:47.198Z,4.70
2023-03-21T02:55:22.442Z,7.00
2023-03-21T02:57:56.939Z,6.78
2023-03-21T03:00:31.435Z,6.13
2023-03-21T03:03:09.319Z,5.90
2023-03-21T03:05:51.067Z,4.85
2023-03-21T03:08:43.235Z,6.72
2023-03-21T03:11:24.204Z,10.90
2023-03-21T03:13:51.826Z,8.95
2023-03-21T03:16:36.983Z,8.32
2023-03-21T03:19:10.261Z,7.90
2023-03-21T03:21:54.840Z,11.13
2023-03-21T03:24:31.415Z,6.28
2023-03-21T03:27:17.873Z,7.28
2023-03-21T03:32:27.327Z,7.13
2023-03-21T03:34:56.470Z,5.03
2023-03-21T03:37:31.626Z,10.57
2023-03-21T03:40:11.644Z,6.78
2023-03-21T03:42:52.570Z,10.95
2023-03-21T03:45:36.518Z,11.68
2023-03-21T03:48:13.521Z,7.53
2023-03-21T03:53:35.394Z,3.45
2023-03-21T03:56:07.138Z,6.07
2023-03-21T03:58:45.304Z,8.38
2023-03-21T04:01:15.504Z,8.35
2023-03-21T04:03:50.753Z,7.50
2023-03-21T04:06:22.171Z,6.70
2023-03-21T04:08:52.151Z,5.47
2023-03-21T04:11:19.852Z,9.10
2023-03-21T04:13:52.071Z,3.78
2023-03-21T04:16:24.410Z,10.45
2023-03-21T04:18:52.573Z,6.78
2023-03-21T04:21:21.733Z,7.57
2023-03-21T04:23:49.198Z,7.78
2023-03-21T04:26:16.821Z,10.27
2023-03-21T04:28:54.832Z,7.50
2023-03-21T04:31:27.443Z,6.18
2023-03-21T04:34:12.575Z,7.60
2023-03-21T04:36:47.397Z,7.10
2023-03-21T04:39:16.259Z,6.55
2023-03-21T04:41:47.177Z,7.63
2023-03-21T04:44:16.782Z,9.00
2023-03-21T04:46:45.365Z,10.52
2023-03-21T04:49:13.685Z,6.10
2023-03-21T04:51:45.251Z,9.38
2023-03-21T04:54:18.377Z,5.93
2023-03-21T04:56:45.890Z,6.53
2023-03-21T04:59:15.866Z,6.57
2023-03-21T05:01:44.039Z,6.43
2023-03-21T05:04:14.284Z,9.52
2023-03-21T05:06:45.298Z,8.73
2023-03-21T05:09:13.683Z,7.63
2023-03-21T05:11:42.450Z,9.10
2023-03-21T05:14:15.998Z,8.13
2023-03-21T05:16:55.756Z,11.15
2023-03-21T05:19:35.244Z,5.18
2023-03-21T05:22:06.765Z,11.00
2023-03-21T05:24:37.468Z,7.30
2023-03-21T05:27:06.161Z,8.60
2023-03-21T05:29:41.151Z,10.45
2023-03-21T05:32:09.424Z,8.18
2023-03-21T05:37:04.846Z,8.82
2023-03-21T05:39:58.223Z,10.10
2023-03-21T05:42:32.620Z,8.55
2023-03-21T05:45:06.237Z,7.00
2023-03-21T05:47:35.540Z,6.75
2023-03-21T05:50:05.001Z,7.85
2023-03-21T05:52:33.727Z,8.07
2023-03-21T05:55:06.204Z,8.10
2023-03-21T05:57:39.210Z,8.30
2023-03-21T06:00:09.899Z,10.35
2023-03-21T06:02:44.116Z,9.23
2023-03-21T06:05:32.649Z,10.40
2023-03-21T06:08:00.362Z,10.88
2023-03-21T06:10:28.194Z,7.15
2023-03-21T06:12:55.928Z,6.40
2023-03-21T06:15:34.316Z,10.05
2023-03-21T06:18:10.706Z,6.20
2023-03-21T06:20:41.016Z,7.22
2023-03-21T06:23:11.946Z,10.07
2023-03-21T06:25:39.600Z,6.72
2023-03-21T06:28:07.305Z,8.82
2023-03-21T06:30:40.010Z,7.32
2023-03-21T06:33:22.849Z,5.97
2023-03-21T06:35:55.359Z,10.57
2023-03-21T06:38:23.833Z,8.43
2023-03-21T06:40:51.750Z,6.68
2023-03-21T06:43:19.453Z,5.70
2023-03-21T06:45:47.223Z,3.72
2023-03-21T06:48:14.986Z,7.38
2023-03-21T06:50:52.157Z,7.10
2023-03-21T06:53:25.133Z,4.82
2023-03-21T06:56:18.687Z,10.27
2023-03-21T06:58:46.760Z,3.78
2023-03-21T07:01:33.152Z,7.50
2023-03-21T07:04:06.316Z,6.90
2023-03-21T07:06:34.394Z,4.55
2023-03-21T07:09:03.282Z,6.15
2023-03-21T07:11:33.504Z,4.80
2023-03-21T07:14:01.676Z,4.60
2023-03-21T07:16:29.360Z,5.45
2023-03-21T07:18:57.146Z,6.45
2023-03-21T07:21:24.757Z,5.57
2023-03-21T07:23:52.260Z,2.88
2023-03-21T07:26:19.822Z,5.95
2023-03-21T07:28:48.324Z,7.13
2023-03-21T07:31:17.632Z,6.50
2023-03-21T07:33:45.495Z,16.73
2023-03-21T07:36:15.612Z,10.52
2023-03-21T07:38:44.492Z,11.10
2023-03-21T07:41:12.892Z,15.73
2023-03-21T07:43:41.076Z,19.17
2023-03-21T07:46:11.319Z,14.75
2023-03-21T07:48:45.037Z,7.00
2023-03-21T07:51:12.700Z,2.85
2023-03-21T07:53:42.067Z,4.95
2023-03-21T07:56:10.097Z,4.70
2023-03-21T07:58:37.546Z,9.63
2023-03-21T08:01:05.337Z,10.70
2023-03-21T08:03:33.946Z,8.00
2023-03-21T08:06:01.884Z,8.38
2023-03-21T08:08:29.441Z,3.92
2023-03-21T08:10:57.048Z,2.53
2023-03-21T08:13:26.113Z,1.50
2023-03-21T08:15:54.009Z,1.98
2023-03-21T08:18:21.743Z,5.30
2023-03-21T08:20:57.701Z,4.53
2023-03-21T08:23:26.028Z,3.75
2023-03-21T08:25:54.639Z,7.75
2023-03-21T08:28:23.415Z,3.72
2023-03-21T08:30:51.117Z,5.93
2023-03-21T08:33:19.167Z,4.28
2023-03-21T08:35:46.926Z,9.35
2023-03-21T08:38:14.719Z,10.27
2023-03-21T08:40:42.316Z,5.82
2023-03-21T08:43:09.886Z,6.47
2023-03-21T08:45:37.599Z,5.30
2023-03-21T08:48:05.330Z,4.93
2023-03-21T08:50:32.790Z,3.50
2023-03-21T08:53:00.417Z,7.65
2023-03-21T08:55:28.069Z,5.55
2023-03-21T08:57:55.894Z,7.88
2023-03-21T09:00:23.725Z,5.18
2023-03-21T09:02:52.626Z,10.95
2023-03-21T09:05:21.289Z,7.32
2023-03-21T09:07:49.827Z,7.25
2023-03-21T09:10:21.964Z,9.73
2023-03-21T09:12:52.353Z,8.38
2023-03-21T09:15:21.810Z,12.05
2023-03-21T09:17:53.153Z,7.47
2023-03-21T09:20:22.725Z,7.28
2023-03-21T09:22:52.319Z,6.90
2023-03-21T09:25:20.856Z,5.90
2023-03-21T09:27:48.466Z,10.88
2023-03-21T09:30:19.447Z,12.60
2023-03-21T09:32:48.994Z,10.35
2023-03-21T09:35:20.949Z,8.90
2023-03-21T09:37:50.064Z,11.65
2023-03-21T09:40:23.326Z,16.20
2023-03-21T09:43:10.620Z,8.20
2023-03-21T09:45:49.871Z,10.52
2023-03-21T09:48:58.031Z,12.15
2023-03-21T09:51:31.768Z,11.02
2023-03-21T09:54:06.833Z,10.07
2023-03-21T09:56:38.660Z,9.23
2023-03-21T09:59:10.692Z,8.95
2023-03-21T10:01:45.653Z,11.20
2023-03-21T10:04:17.845Z,11.57
2023-03-21T10:06:54.420Z,8.50
2023-03-21T10:09:24.707Z,13.52
2023-03-21T10:11:55.670Z,12.25
2023-03-21T10:14:33.249Z,11.55
2023-03-21T10:17:30.533Z,13.13
2023-03-21T10:20:13.315Z,10.82
2023-03-21T10:22:41.658Z,10.25
2023-03-21T10:25:24.712Z,12.13
2023-03-21T10:27:52.996Z,9.68
2023-03-21T10:30:42.419Z,9.43
2023-03-21T10:33:15.889Z,7.35
2023-03-21T10:35:47.068Z,8.57
2023-03-21T10:38:21.281Z,12.25
2023-03-21T10:40:48.806Z,14.18
2023-03-21T10:43:27.242Z,10.88
2023-03-21T10:45:55.776Z,6.95
2023-03-21T10:48:24.493Z,14.13
2023-03-21T10:50:54.948Z,8.43
2023-03-21T10:53:42.623Z,9.27
2023-03-21T10:56:12.277Z,9.13
2023-03-21T10:58:45.478Z,8.82
2023-03-21T11:01:41.291Z,12.13
2023-03-21T11:04:16.147Z,10.20
2023-03-21T11:06:50.316Z,11.02
2023-03-21T11:09:21.943Z,8.63
2023-03-21T11:12:03.197Z,8.38
2023-03-21T11:14:34.136Z,10.95
2023-03-21T11:17:02.029Z,7.07
2023-03-21T11:19:32.887Z,13.07
2023-03-21T11:22:07.226Z,8.10
2023-03-21T11:24:36.178Z,11.38
2023-03-21T11:27:08.213Z,9.90
2023-03-21T11:29:39.378Z,12.80
2023-03-21T11:32:09.570Z,6.28
2023-03-21T11:34:53.328Z,8.80
2023-03-21T11:37:23.774Z,8.65
2023-03-21T11:40:13.572Z,7.40
2023-03-21T11:42:44.676Z,6.63
2023-03-21T11:45:18.995Z,7.47
2023-03-21T11:47:49.525Z,10.20
2023-03-21T11:50:37.644Z,7.55
2023-03-21T11:53:42.789Z,8.88
2023-03-21T11:56:27.686Z,12.57
2023-03-21T11:59:18.385Z,14.27
2023-03-21T12:02:16.926Z,11.02
2023-03-21T12:04:54.045Z,11.10
2023-03-21T12:07:33.632Z,5.40
2023-03-21T12:10:28.868Z,9.73
2023-03-21T12:13:21.430Z,9.23
2023-03-21T12:15:57.784Z,8.68
2023-03-21T12:18:56.679Z,9.93
2023-03-21T12:21:31.497Z,8.35
2023-03-21T12:24:02.453Z,9.32
2023-03-21T12:26:33.095Z,10.70
2023-03-21T12:29:27.074Z,8.93
2023-03-21T12:32:16.487Z,12.13
2023-03-21T12:35:20.882Z,11.35
2023-03-21T12:37:48.428Z,11.50
2023-03-21T12:40:56.452Z,8.73
2023-03-21T12:43:42.832Z,10.75
2023-03-21T12:46:22.701Z,6.68
2023-03-21T12:49:00.410Z,10.75
2023-03-21T12:51:36.880Z,11.13
2023-03-21T12:54:17.752Z,9.18
2023-03-21T12:57:13.202Z,6.90
2023-03-21T12:59:56.096Z,7.30
2023-03-21T13:02:37.837Z,11.18
2023-03-21T13:05:43.670Z,8.05
2023-03-21T13:08:24.684Z,12.48
2023-03-21T13:10:52.509Z,8.73
2023-03-21T13:13:36.155Z,10.13
2023-03-21T13:16:16.310Z,10.05
2023-03-21T13:18:51.507Z,11.07
2023-03-21T13:21:24.468Z,15.82
2023-03-21T13:24:17.708Z,13.40
2023-03-21T13:26:52.355Z,9.52
2023-03-21T13:29:27.204Z,9.43
2023-03-21T13:31:59.456Z,9.48
2023-03-21T13:34:27.486Z,9.60
2023-03-21T13:36:58.001Z,9.18
2023-03-21T13:39:28.853Z,13.68
2023-03-21T13:42:03.857Z,10.70
2023-03-21T13:44:34.152Z,13.00
2023-03-21T13:47:03.513Z,7.82
2023-03-21T13:49:36.373Z,11.15
2023-03-21T13:52:10.047Z,11.52
2023-03-21T13:54:56.167Z,11.63
2023-03-21T13:57:38.779Z,8.77
2023-03-21T14:00:32.095Z,11.20
2023-03-21T14:03:12.642Z,15.98
2023-03-21T14:05:40.522Z,10.43
2023-03-21T14:08:15.797Z,10.27
2023-03-21T14:10:52.582Z,10.27
2023-03-21T14:13:23.285Z,8.65
2023-03-21T14:16:00.044Z,12.02
2023-03-21T14:21:24.794Z,12.50
2023-03-21T14:24:17.889Z,7.82
2023-03-21T14:26:49.530Z,9.68
2023-03-21T14:29:27.149Z,10.93
2023-03-21T14:32:00.271Z,8.80
2023-03-21T14:34:29.981Z,10.30
2023-03-21T14:36:59.147Z,8.00
2023-03-21T14:39:32.318Z,14.15
2023-03-21T14:42:07.708Z,14.02
2023-03-21T14:44:56.694Z,11.18
2023-03-21T14:47:28.933Z,7.20
2023-03-21T14:49:58.168Z,11.85
2023-03-21T14:52:34.981Z,7.80
2023-03-21T14:55:10.584Z,5.65
2023-03-21T14:57:38.305Z,14.95
2023-03-21T15:00:13.061Z,9.68
2023-03-21T15:02:43.323Z,12.32
2023-03-21T15:05:37.488Z,7.70
2023-03-21T15:08:17.648Z,9.55
2023-03-21T15:11:09.662Z,12.35
2023-03-21T15:13:46.936Z,5.90
2023-03-21T15:16:15.133Z,9.98
2023-03-21T15:18:44.708Z,11.00
2023-03-21T15:21:23.256Z,10.30
2023-03-21T15:23:56.274Z,15.00
2023-03-21T15:26:25.942Z,13.70
2023-03-21T15:28:58.956Z,10.52
2023-03-21T15:31:39.681Z,9.57
2023-03-21T15:34:07.889Z,9.63
2023-03-21T15:36:38.034Z,7.38
2023-03-21T15:39:08.859Z,12.05
2023-03-21T15:41:36.694Z,11.32
2023-03-21T15:44:10.427Z,5.93
2023-03-21T15:46:46.312Z,7.50
2023-03-21T15:49:14.714Z,6.72
2023-03-21T15:51:52.627Z,10.85
2023-03-21T15:54:35.413Z,12.68
2023-03-21T15:57:09.568Z,11.95
2023-03-21T15:59:42.612Z,10.55
2023-03-21T16:02:27.320Z,9.23
2023-03-21T16:05:01.077Z,11.93
2023-03-21T16:07:28.994Z,13.73
2023-03-21T16:10:02.206Z,14.32
2023-03-21T16:12:29.660Z,12.80
2023-03-21T16:14:57.393Z,15.65
2023-03-21T16:17:33.460Z,16.17
2023-03-21T16:20:01.517Z,9.20
2023-03-21T16:22:30.195Z,9.25
2023-03-21T16:24:57.778Z,9.82
2023-03-21T16:27:28.223Z,8.50
2023-03-21T16:29:55.908Z,11.05
2023-03-21T16:32:24.182Z,11.75
2023-03-21T16:34:53.876Z,11.18
2023-03-21T16:37:21.810Z,12.75
2023-03-21T16:39:49.627Z,9.60
2023-03-21T16:42:17.176Z,7.80
2023-03-21T16:44:45.292Z,8.48
2023-03-21T16:47:23.611Z,6.50
2023-03-21T16:49:51.558Z,9.68
2023-03-21T16:52:18.999Z,6.72
2023-03-21T16:54:46.519Z,5.78
2023-03-21T16:57:29.251Z,8.68
2023-03-21T16:59:56.885Z,8.43
2023-03-21T17:02:26.352Z,5.38
2023-03-21T17:04:53.913Z,7.53
2023-03-21T17:07:21.429Z,6.93
2023-03-21T17:09:49.815Z,9.55
2023-03-21T17:12:17.801Z,6.95
2023-03-21T17:14:45.925Z,13.38
2023-03-21T17:17:15.913Z,10.93
2023-03-21T17:19:43.961Z,11.82
2023-03-21T17:22:13.380Z,16.10
2023-03-21T17:24:42.020Z,14.23
2023-03-21T17:27:14.190Z,16.25
2023-03-21T17:29:41.764Z,12.75
2023-03-21T17:32:09.311Z,16.45
2023-03-21T17:34:36.822Z,15.18
2023-03-21T17:37:04.249Z,14.30
2023-03-21T17:39:32.421Z,22.23
2023-03-21T17:42:00.132Z,15.50
2023-03-21T17:44:28.889Z,16.23
2023-03-21T17:46:56.328Z,13.18
2023-03-21T17:49:24.280Z,14.90
2023-03-21T17:51:52.336Z,10.85
2023-03-21T17:54:19.873Z,19.10
2023-03-21T17:56:47.495Z,12.38
2023-03-21T17:59:15.842Z,11.75
2023-03-21T18:01:43.424Z,14.30
2023-03-21T18:04:11.220Z,19.48
2023-03-21T18:06:39.201Z,19.80
2023-03-21T18:09:11.382Z,14.18
2023-03-21T18:11:40.070Z,22.08
2023-03-21T18:14:16.336Z,18.88
2023-03-21T18:16:45.928Z,19.23
2023-03-21T18:19:14.259Z,11.52
2023-03-21T18:21:45.286Z,17.45
2023-03-21T18:24:14.589Z,18.23
2023-03-21T18:26:43.269Z,22.38
2023-03-21T18:32:08.078Z,14.52
2023-03-21T18:34:38.918Z,18.27
2023-03-21T18:37:08.551Z,18.00
2023-03-21T18:39:38.012Z,15.25
2023-03-21T18:42:06.501Z,20.25
2023-03-21T18:44:39.011Z,18.48
2023-03-21T18:47:07.655Z,18.08
2023-03-21T18:52:23.702Z,17.60
2023-03-21T18:54:51.313Z,21.25
2023-03-21T18:57:35.690Z,15.15
2023-03-21T19:00:13.305Z,14.35
2023-03-21T19:02:47.872Z,18.05
2023-03-21T19:05:20.984Z,18.95
2023-03-21T19:07:49.163Z,16.42
2023-03-21T19:10:20.740Z,17.92
2023-03-21T19:12:49.759Z,17.70
2023-03-21T19:15:19.870Z,19.15
2023-03-21T19:20:36.835Z,17.65
2023-03-21T19:23:05.396Z,21.35
2023-03-21T19:25:33.090Z,15.85
2023-03-21T19:28:00.869Z,15.70
2023-03-21T19:30:28.309Z,23.60
2023-03-21T19:35:23.330Z,20.23
2023-03-21T19:37:50.888Z,17.35
2023-03-21T19:40:20.036Z,17.10
2023-03-21T19:42:47.545Z,19.13
2023-03-21T19:45:15.106Z,14.85
2023-03-21T19:47:42.600Z,21.70
2023-03-21T19:52:58.945Z,12.55
2023-03-21T19:55:27.166Z,16.08
2023-03-21T19:57:54.956Z,14.93
2023-03-21T20:00:22.628Z,20.08
2023-03-21T20:02:51.199Z,17.45
2023-03-21T20:05:22.369Z,25.77
2023-03-21T20:07:50.206Z,16.05
2023-03-21T20:10:17.797Z,22.88
2023-03-21T20:12:46.224Z,17.55
2023-03-21T20:15:20.876Z,20.55
2023-03-21T20:17:49.950Z,17.60
2023-03-21T20:20:18.600Z,18.30
2023-03-21T20:25:43.322Z,15.73
2023-03-21T20:28:28.158Z,23.42
2023-03-21T20:31:00.839Z,15.70
2023-03-21T20:33:29.596Z,16.70
2023-03-21T20:36:37.390Z,23.95
2023-03-21T20:38:55.511Z,21.77
2023-03-21T20:41:22.983Z,13.93
2023-03-21T20:46:38.098Z,18.10
2023-03-21T20:49:06.767Z,18.60
2023-03-21T20:54:21.952Z,20.00
2023-03-21T20:56:49.503Z,18.33
2023-03-21T20:59:26.098Z,26.27
2023-03-21T21:01:54.457Z,17.58
2023-03-21T21:04:23.089Z,24.02
2023-03-21T21:06:55.358Z,17.73
2023-03-21T21:09:23.374Z,20.75
2023-03-21T21:12:07.804Z,24.73
2023-03-21T21:14:36.925Z,16.98
2023-03-21T21:17:23.851Z,19.90
2023-03-21T21:19:53.133Z,26.85
2023-03-21T21:22:20.763Z,25.63
2023-03-21T21:24:48.345Z,18.67
2023-03-21T21:27:15.826Z,17.48
2023-03-21T21:29:47.780Z,14.27
2023-03-21T21:32:16.939Z,19.20
2023-03-21T21:34:44.465Z,15.35
2023-03-21T21:37:11.959Z,21.08
2023-03-21T21:39:40.282Z,19.85
2023-03-21T21:42:07.878Z,13.13
2023-03-21T21:44:37.305Z,18.38
2023-03-21T21:47:08.650Z,17.15
2023-03-21T21:49:36.367Z,18.73
2023-03-21T21:52:06.582Z,18.08
2023-03-21T21:54:37.088Z,20.55
2023-03-21T21:57:05.743Z,26.00
2023-03-21T21:59:33.979Z,20.23
2023-03-21T22:02:01.844Z,20.20
2023-03-21T22:04:30.207Z,15.80
2023-03-21T22:06:57.756Z,16.70
2023-03-21T22:09:25.236Z,17.92
2023-03-21T22:11:52.884Z,20.73
2023-03-21T22:14:20.456Z,18.25
2023-03-21T22:16:48.034Z,16.05
2023-03-21T22:19:15.588Z,12.98
2023-03-21T22:21:43.031Z,23.33
2023-03-21T22:26:38.444Z,20.58
2023-03-21T22:29:08.105Z,20.48
2023-03-21T22:31:38.929Z,15.43
2023-03-21T22:34:06.452Z,16.10
2023-03-21T22:36:34.639Z,16.55
2023-03-21T22:39:02.136Z,12.30
2023-03-21T22:43:56.805Z,9.95
2023-03-21T22:48:51.940Z,20.13
2023-03-21T22:51:19.326Z,19.30
2023-03-21T22:56:15.389Z,12.82
2023-03-21T22:58:43.017Z,12.82
2023-03-21T23:01:10.590Z,14.13
2023-03-21T23:03:38.393Z,16.90
2023-03-21T23:06:06.109Z,17.00
2023-03-21T23:08:33.716Z,16.05
2023-03-21T23:11:09.291Z,15.02
2023-03-21T23:13:36.961Z,17.05
2023-03-21T23:16:06.145Z,12.63
2023-03-21T23:18:33.989Z,16.30
2023-03-21T23:21:01.412Z,17.70
2023-03-21T23:23:29.600Z,16.10
2023-03-21T23:25:57.276Z,15.57
2023-03-21T23:28:24.782Z,14.02
2023-03-21T23:30:52.192Z,15.02
2023-03-21T23:33:19.671Z,18.17
2023-03-21T23:38:14.514Z,16.95
2023-03-21T23:40:42.390Z,12.95
2023-03-21T23:43:09.908Z,13.63
2023-03-21T23:45:37.302Z,13.35
2023-03-21T23:48:05.105Z,15.18
2023-03-21T23:50:33.825Z,14.25
2023-03-21T23:53:01.344Z,11.38
2023-03-21T23:55:28.784Z,15.30
2023-03-21T23:57:59.421Z,17.30
